Time;durP1;ratioP1;P1;durP2;ratioP2;P2;SDS_P1;SDS_P2;PMS_P1;PMS_P2;Temp;Humidity;BMP_temperature;BMP_pressure;BME280_temperature;BME280_humidity;BME280_pressure;Samples;Min_cycle;Max_cycle;Signal;HPM_P1;HPM_P2
2022/09/29 00:01:47;;;;;;;28.35;20.92;;;;;;;4.36;100.00;99902.50;5134361;27;20368;-46
2022/09/29 00:04:12;;;;;;;27.33;22.30;;;;;;;4.32;100.00;99900.63;5133647;27;20027;-44
2022/09/29 00:06:37;;;;;;;29.77;22.50;;;;;;;4.40;100.00;99894.16;5134199;27;20019;-47
2022/09/29 00:09:03;;;;;;;27.90;22.73;;;;;;;4.31;100.00;99898.88;5134198;27;20034;-47
2022/09/29 00:11:28;;;;;;;27.60;21.75;;;;;;;4.29;100.00;99897.16;5133585;27;20052;-47
2022/09/29 00:13:54;;;;;;;29.20;22.95;;;;;;;4.28;100.00;99897.94;5133976;27;20043;-49
2022/09/29 00:16:19;;;;;;;31.17;24.85;;;;;;;4.31;100.00;99893.78;5134336;27;20039;-47
2022/09/29 00:18:44;;;;;;;30.73;23.90;;;;;;;4.28;100.00;99890.28;5133314;27;20417;-45
2022/09/29 00:21:18;;;;;;;32.25;23.88;;;;;;;4.21;100.00;99898.53;5134071;27;20030;-45
2022/09/29 00:23:44;;;;;;;30.95;24.55;;;;;;;4.12;100.00;99893.06;5133114;27;20019;-46
2022/09/29 00:26:14;;;;;;;30.23;24.08;;;;;;;4.14;100.00;99896.53;5134105;27;20370;-45
2022/09/29 00:28:46;;;;;;;31.80;23.88;;;;;;;4.11;100.00;99887.09;5133903;27;20035;-45
2022/09/29 00:31:11;;;;;;;30.13;23.25;;;;;;;4.15;100.00;99889.78;5133172;27;20015;-45
2022/09/29 00:33:38;;;;;;;28.70;23.38;;;;;;;4.19;100.00;99884.84;5133901;27;20026;-45
2022/09/29 00:36:08;;;;;;;29.92;23.67;;;;;;;4.05;100.00;99886.81;5134048;27;20102;-45
2022/09/29 00:38:35;;;;;;;27.85;23.00;;;;;;;3.93;100.00;99887.22;5132885;27;20380;-45
2022/09/29 00:41:01;;;;;;;31.77;24.83;;;;;;;4.01;100.00;99879.88;5133773;28;20023;-47
2022/09/29 00:43:47;;;;;;;32.35;25.98;;;;;;;4.03;100.00;99887.56;5133633;28;20051;-46
2022/09/29 00:46:13;;;;;;;34.70;26.77;;;;;;;4.02;100.00;99889.28;5133174;28;20027;-45
2022/09/29 00:48:39;;;;;;;32.80;27.40;;;;;;;3.99;100.00;99886.59;5133675;28;20027;-48
2022/09/29 00:51:05;;;;;;;29.77;25.80;;;;;;;4.06;100.00;99886.03;5133830;28;20527;-46
2022/09/29 00:53:31;;;;;;;30.52;26.05;;;;;;;3.98;100.00;99879.75;5132728;28;20015;-45
2022/09/29 00:56:06;;;;;;;32.35;25.60;;;;;;;3.97;100.00;99882.25;5133870;28;20470;-44
2022/09/29 00:58:36;;;;;;;33.67;24.15;;;;;;;3.92;100.00;99888.00;5133685;28;20073;-45
2022/09/29 01:01:03;;;;;;;28.75;23.48;;;;;;;3.87;100.00;99886.94;5132998;28;20027;-47
2022/09/29 01:03:34;;;;;;;28.43;20.07;;;;;;;3.79;100.00;99885.78;5135521;27;20102;-46
2022/09/29 01:06:22;;;;;;;23.10;20.02;;;;;;;3.73;100.00;99886.41;5137067;27;20027;-45
2022/09/29 01:08:56;;;;;;;;;;;;;;;3.81;100.00;99886.72;5137837;27;20027;-45
2022/09/29 01:11:22;;;;;;;22.08;17.70;;;;;;;3.50;100.00;99879.47;5137813;27;19919;-45
2022/09/29 01:13:49;;;;;;;23.83;19.52;;;;;;;3.57;100.00;99881.47;5136739;27;20023;-44
2022/09/29 01:16:14;;;;;;;25.95;19.88;;;;;;;3.50;100.00;99882.91;5137549;27;20065;-46
2022/09/29 01:18:41;;;;;;;26.38;21.10;;;;;;;3.52;100.00;99883.81;5137484;27;20110;-45
2022/09/29 01:21:28;;;;;;;27.35;21.98;;;;;;;3.53;100.00;99885.56;5136862;27;20027;-46
2022/09/29 01:23:56;;;;;;;29.27;22.45;;;;;;;3.50;100.00;99880.34;5137358;27;20038;-46
2022/09/29 01:26:35;;;;;;;26.30;22.65;;;;;;;3.60;100.00;99882.47;5137493;27;20505;-47
2022/09/29 01:29:30;;;;;;;30.80;22.63;;;;;;;3.57;100.00;99884.88;5136422;27;20114;-46
2022/09/29 01:32:03;;;;;;;29.25;23.45;;;;;;;3.56;100.00;99883.13;5137472;27;20053;-45
2022/09/29 01:34:57;;;;;;;32.08;23.65;;;;;;;3.54;100.00;99889.84;5136600;27;20102;-44
2022/09/29 01:37:43;;;;;;;29.63;23.13;;;;;;;3.50;100.00;99895.63;5137578;27;20031;-48
2022/09/29 01:40:14;;;;;;;29.33;24.58;;;;;;;3.45;100.00;99892.00;5137255;27;20023;-45
2022/09/29 01:42:48;;;;;;;29.02;24.00;;;;;;;3.46;100.00;99889.53;5136187;27;20043;-45
2022/09/29 01:45:16;;;;;;;31.33;25.40;;;;;;;3.52;100.00;99891.44;5137014;27;20027;-45
2022/09/29 01:47:48;;;;;;;34.80;26.33;;;;;;;3.49;100.00;99893.88;5137178;27;20030;-47
2022/09/29 01:50:22;;;;;;;34.05;25.48;;;;;;;3.51;100.00;99899.94;5136355;27;20031;-49
2022/09/29 01:52:53;;;;;;;32.90;25.73;;;;;;;3.47;100.00;99892.94;5136773;27;20352;-45
2022/09/29 01:55:22;;;;;;;29.35;25.33;;;;;;;3.52;100.00;99891.44;5136118;27;20041;-45
2022/09/29 01:57:57;;;;;;;29.38;23.75;;;;;;;3.45;100.00;99892.00;5136646;27;20085;-46
2022/09/29 02:00:23;;;;;;;30.92;25.30;;;;;;;3.40;100.00;99894.34;5136727;27;20019;-45
2022/09/29 02:02:54;;;;;;;33.00;26.75;;;;;;;3.42;100.00;99891.88;5135847;27;20043;-45
2022/09/29 02:05:32;;;;;;;35.88;27.85;;;;;;;3.41;100.00;99891.00;5136665;27;20489;-47
2022/09/29 02:08:06;;;;;;;33.33;27.20;;;;;;;3.43;100.00;99894.50;5136675;27;20485;-44
2022/09/29 02:10:44;;;;;;;36.13;29.55;;;;;;;3.43;100.00;99889.41;5135402;27;20035;-45
2022/09/29 02:13:13;;;;;;;35.42;29.15;;;;;;;3.38;100.00;99892.53;5136504;27;20455;-47
2022/09/29 02:15:43;;;;;;;33.67;29.02;;;;;;;3.38;100.00;99890.88;5136305;27;20072;-45
2022/09/29 02:18:20;;;;;;;37.08;28.80;;;;;;;3.38;100.00;99900.19;5135783;27;20053;-45
2022/09/29 02:20:47;;;;;;;35.03;27.48;;;;;;;3.36;100.00;99899.25;5136229;27;20031;-44
2022/09/29 02:23:12;;;;;;;31.00;26.30;;;;;;;3.33;100.00;99886.38;5135665;27;20019;-46
2022/09/29 02:25:39;;;;;;;30.48;24.35;;;;;;;3.25;100.00;99899.66;5136323;27;20314;-45
2022/09/29 02:28:06;;;;;;;33.45;26.08;;;;;;;3.26;100.00;99896.28;5136366;27;20098;-44
2022/09/29 02:30:32;;;;;;;34.15;26.27;;;;;;;3.26;100.00;99900.53;5135079;27;20462;-45
2022/09/29 02:32:57;;;;;;;32.97;27.73;;;;;;;3.23;100.00;99898.72;5136164;27;20025;-47
2022/09/29 02:35:28;;;;;;;34.17;27.10;;;;;;;3.24;100.00;99892.81;5136023;27;20374;-49
2022/09/29 02:38:04;;;;;;;35.97;27.17;;;;;;;3.21;100.00;99902.00;5135220;27;20031;-45
2022/09/29 02:40:53;;;;;;;34.40;27.30;;;;;;;3.26;100.00;99903.06;5136248;27;20023;-45
2022/09/29 02:43:33;;;;;;;36.08;30.10;;;;;;;3.27;100.00;99905.69;5135823;27;20047;-45
2022/09/29 02:46:21;;;;;;;31.00;25.52;;;;;;;3.11;100.00;99890.53;5135193;27;20107;-45
2022/09/29 02:49:08;;;;;;;25.35;21.98;;;;;;;3.05;100.00;99906.41;5134533;27;20034;-45
2022/09/29 02:51:40;;;;;;;24.15;20.70;;;;;;;2.95;100.00;99900.03;5134829;27;20126;-46
2022/09/29 02:54:40;;;;;;;24.90;21.33;;;;;;;2.97;100.00;99900.97;5135717;27;20501;-48
2022/09/29 02:57:38;;;;;;;29.88;24.00;;;;;;;3.01;100.00;99896.03;5135707;27;20381;-48
2022/09/29 03:00:10;;;;;;;27.67;23.05;;;;;;;2.93;100.00;99904.19;5100406;27;20077;-46
2022/09/29 03:02:37;;;;;;;29.58;24.10;;;;;;;2.91;100.00;99903.25;5135268;27;20022;-45
2022/09/29 03:05:04;;;;;;;28.38;23.17;;;;;;;2.86;100.00;99897.06;5135778;27;20023;-46
2022/09/29 03:07:30;;;;;;;32.92;25.13;;;;;;;2.90;100.00;99898.94;5134704;27;20038;-47
2022/09/29 03:09:55;;;;;;;28.08;23.50;;;;;;;2.80;100.00;99904.44;5135333;27;20031;-47
2022/09/29 03:12:20;;;;;;;25.95;23.00;;;;;;;2.85;100.00;99897.00;5135018;27;20110;-44
2022/09/29 03:14:45;;;;;;;28.23;23.50;;;;;;;2.82;100.00;99907.94;5134826;27;20027;-44
2022/09/29 03:17:11;;;;;;;24.67;20.50;;;;;;;2.71;100.00;99910.00;5135150;27;20026;-46
2022/09/29 03:19:36;;;;;;;28.15;20.63;;;;;;;2.66;100.00;99902.94;5134322;27;20016;-45
2022/09/29 03:22:02;;;;;;;24.67;21.98;;;;;;;2.69;100.00;99905.63;5135356;27;20072;-49
2022/09/29 03:24:28;;;;;;;29.27;21.45;;;;;;;2.59;100.00;99899.22;5135220;27;20094;-44
2022/09/29 03:26:53;;;;;;;25.20;21.40;;;;;;;2.63;100.00;99898.56;5133122;27;20447;-46
2022/09/29 03:29:18;;;;;;;24.88;20.88;;;;;;;2.53;100.00;99897.28;5135032;27;20495;-45
2022/09/29 03:31:44;;;;;;;24.23;20.70;;;;;;;2.58;100.00;99898.38;5134854;27;20031;-45
2022/09/29 03:34:09;;;;;;;25.52;21.90;;;;;;;2.56;100.00;99894.03;5134135;27;20067;-45
2022/09/29 03:36:34;;;;;;;24.35;20.73;;;;;;;2.50;100.00;99893.72;5134880;27;20173;-45
2022/09/29 03:39:00;;;;;;;26.40;22.38;;;;;;;2.52;100.00;99903.16;5134797;27;20076;-46
2022/09/29 03:41:25;;;;;;;26.00;23.17;;;;;;;2.57;100.00;99900.81;5134151;27;20114;-46
2022/09/29 03:43:50;;;;;;;28.50;23.35;;;;;;;2.50;100.00;99909.84;5134355;27;20043;-44
2022/09/29 03:46:15;;;;;;;29.10;23.05;;;;;;;2.52;100.00;99907.38;5134757;27;20019;-46
2022/09/29 03:48:41;;;;;;;34.42;26.05;;;;;;;2.55;100.00;99908.38;5133534;27;20023;-45
2022/09/29 03:51:07;;;;;;;28.80;25.70;;;;;;;2.48;100.00;99908.91;5134562;27;20462;-47
2022/09/29 03:53:34;;;;;;;32.40;26.88;;;;;;;2.55;100.00;99902.44;5134504;27;20023;-48
2022/09/29 03:56:00;;;;;;;31.70;25.23;;;;;;;2.51;100.00;99906.50;5133810;27;20427;-44
2022/09/29 03:58:26;;;;;;;29.85;24.65;;;;;;;2.42;100.00;99903.53;5134607;27;20027;-44
2022/09/29 04:00:51;;;;;;;29.35;24.20;;;;;;;2.45;100.00;99912.19;5134171;27;20043;-45
2022/09/29 04:03:17;;;;;;;32.67;25.48;;;;;;;2.41;100.00;99905.19;5133583;27;20027;-45
2022/09/29 04:05:45;;;;;;;35.05;26.70;;;;;;;2.49;100.00;99905.56;5134344;27;20034;-46
2022/09/29 04:08:10;;;;;;;;;;;;;;;2.54;100.00;99914.28;5134834;27;20022;-45
2022/09/29 04:10:38;;;;;;;33.20;26.67;;;;;;;2.52;100.00;99910.81;5133260;27;19919;-45
2022/09/29 04:13:05;;;;;;;35.17;27.10;;;;;;;2.51;100.00;99909.06;5134240;27;20280;-46
2022/09/29 04:15:30;;;;;;;29.60;25.33;;;;;;;2.43;100.00;99910.38;5133906;27;20031;-45
2022/09/29 04:17:56;;;;;;;29.25;23.73;;;;;;;2.38;100.00;99911.84;5133636;27;20023;-44
2022/09/29 04:20:21;;;;;;;26.35;22.15;;;;;;;2.35;100.00;99915.09;5134371;27;20370;-45
2022/09/29 04:22:46;;;;;;;26.85;20.83;;;;;;;2.33;100.00;99924.31;5133381;27;20023;-45
2022/09/29 04:25:12;;;;;;;25.65;19.40;;;;;;;2.21;100.00;99923.72;5134123;27;20359;-45
2022/09/29 04:27:37;;;;;;;25.05;20.20;;;;;;;2.19;100.00;99928.72;5133930;27;20027;-46
2022/09/29 04:30:04;;;;;;;30.50;21.02;;;;;;;2.23;100.00;99930.63;5133143;27;20338;-46
2022/09/29 04:32:29;;;;;;;26.27;21.17;;;;;;;2.20;100.00;99932.16;5133926;27;20023;-45
2022/09/29 04:34:55;;;;;;;32.33;25.75;;;;;;;2.35;100.00;99929.47;5133944;27;20076;-45
2022/09/29 04:37:20;;;;;;;30.45;24.88;;;;;;;2.28;100.00;99929.16;5133095;27;20020;-47
2022/09/29 04:39:46;;;;;;;28.85;23.80;;;;;;;2.29;100.00;99930.91;5133693;27;20452;-45
2022/09/29 04:42:11;;;;;;;26.48;22.10;;;;;;;2.23;100.00;99934.84;5133743;27;20023;-45
2022/09/29 04:44:36;;;;;;;24.23;20.77;;;;;;;2.09;100.00;99936.69;5132688;28;20029;-45
2022/09/29 04:47:01;;;;;;;23.55;20.90;;;;;;;2.11;100.00;99940.22;5134066;28;20030;-48
2022/09/29 04:49:27;;;;;;;31.40;23.45;;;;;;;2.19;100.00;99938.03;5133941;28;20059;-44
2022/09/29 04:51:52;;;;;;;27.30;23.33;;;;;;;2.07;100.00;99939.19;5132946;28;20027;-46
2022/09/29 04:54:17;;;;;;;34.28;25.35;;;;;;;2.15;100.00;99937.00;5133897;28;20023;-45
2022/09/29 04:56:43;;;;;;;28.35;23.85;;;;;;;2.18;100.00;99941.38;5133542;28;20102;-50
2022/09/29 04:59:09;;;;;;;32.13;23.38;;;;;;;2.08;100.00;99947.66;5132886;28;20470;-47
2022/09/29 05:01:34;;;;;;;26.52;22.02;;;;;;;2.04;100.00;99944.13;5133387;28;20476;-45
2022/09/29 05:04:00;;;;;;;28.23;21.00;;;;;;;1.91;100.00;99936.66;5133810;28;20090;-46
2022/09/29 05:06:25;;;;;;;24.42;21.02;;;;;;;1.91;100.00;99941.75;5133044;28;20117;-46
2022/09/29 05:08:50;;;;;;;26.08;20.83;;;;;;;1.94;100.00;99947.00;5133443;28;20031;-45
2022/09/29 05:11:15;;;;;;;30.85;24.33;;;;;;;1.90;100.00;99950.16;5133764;28;20027;-47
2022/09/29 05:13:41;;;;;;;31.00;25.00;;;;;;;1.91;100.00;99947.72;5132524;28;20023;-48
2022/09/29 05:16:06;;;;;;;37.00;28.50;;;;;;;1.93;100.00;99955.41;5133543;28;20023;-44
2022/09/29 05:18:32;;;;;;;37.28;27.52;;;;;;;1.95;100.00;99958.88;5133433;28;20110;-48
2022/09/29 05:21:07;;;;;;;40.85;30.67;;;;;;;2.01;100.00;99961.75;5132796;28;20027;-45
2022/09/29 05:23:33;;;;;;;43.40;31.83;;;;;;;1.96;100.00;99960.66;5133320;28;20078;-44
2022/09/29 05:26:07;;;;;;;34.95;29.20;;;;;;;2.08;100.00;99973.09;5132779;28;20043;-46
2022/09/29 05:28:33;;;;;;;34.42;27.67;;;;;;;2.03;100.00;99964.34;5133143;28;20058;-44
2022/09/29 05:31:06;;;;;;;35.42;29.42;;;;;;;2.02;100.00;99967.72;5133417;28;20451;-46
2022/09/29 05:33:32;;;;;;;35.58;29.88;;;;;;;2.00;100.00;99966.75;5132462;28;20023;-49
2022/09/29 05:35:57;;;;;;;33.95;28.92;;;;;;;1.98;100.00;99972.63;5133456;28;20415;-50
2022/09/29 05:38:23;;;;;;;38.20;30.13;;;;;;;2.01;100.00;99978.66;5133379;28;20020;-45
2022/09/29 05:40:49;;;;;;;35.22;27.60;;;;;;;1.92;100.00;99979.06;5132304;28;20018;-49
2022/09/29 05:43:15;;;;;;;35.25;28.80;;;;;;;1.87;100.00;99989.00;5133092;28;20039;-48
2022/09/29 05:45:41;;;;;;;27.98;24.80;;;;;;;1.88;100.00;99988.22;5133246;28;20019;-49
2022/09/29 05:48:06;;;;;;;27.48;23.02;;;;;;;1.86;100.00;99989.81;5132544;27;20023;-48
2022/09/29 05:50:32;;;;;;;30.63;27.15;;;;;;;1.90;100.00;99989.19;5136169;27;20110;-50
2022/09/29 05:53:03;;;;;;;28.83;24.73;;;;;;;1.79;100.00;99987.75;5136884;27;20034;-48
2022/09/29 05:55:28;;;;;;;33.42;28.95;;;;;;;1.98;100.00;99977.72;5136058;27;20080;-48
2022/09/29 05:57:53;;;;;;;32.17;27.45;;;;;;;1.91;100.00;99983.31;5136590;27;20027;-44
2022/09/29 06:00:19;;;;;;;34.40;27.33;;;;;;;1.94;100.00;99998.69;5136945;27;20015;-47
2022/09/29 06:02:44;;;;;;;30.20;25.30;;;;;;;1.87;100.00;99996.63;5135873;27;20039;-50
2022/09/29 06:05:09;;;;;;;33.25;28.42;;;;;;;1.97;100.00;99996.28;5136684;27;20030;-50
2022/09/29 06:07:35;;;;;;;35.80;27.42;;;;;;;1.96;100.00;100002.19;5136419;27;20026;-50
2022/09/29 06:10:00;;;;;;;35.65;29.58;;;;;;;1.98;100.00;99992.97;5135661;27;20386;-49
2022/09/29 06:12:25;;;;;;;35.15;29.98;;;;;;;2.03;100.00;99992.31;5136484;27;20059;-48
2022/09/29 06:14:51;;;;;;;71.35;57.88;;;;;;;2.04;100.00;100002.56;5136421;27;20023;-49
2022/09/29 06:17:16;;;;;;;58.65;46.08;;;;;;;2.15;100.00;99998.03;5135570;27;20067;-49
2022/09/29 06:19:41;;;;;;;50.63;40.42;;;;;;;2.23;100.00;99996.72;5136227;27;20474;-49
2022/09/29 06:22:06;;;;;;;48.03;38.17;;;;;;;2.31;100.00;99997.09;5136369;27;20023;-50
2022/09/29 06:24:32;;;;;;;50.28;37.85;;;;;;;2.44;100.00;100006.19;5135221;27;20045;-50
2022/09/29 06:26:57;;;;;;;45.75;36.58;;;;;;;2.38;100.00;99999.16;5136480;27;20034;-46
2022/09/29 06:29:22;;;;;;;47.42;37.00;;;;;;;2.47;100.00;100002.13;5135565;27;20155;-48
2022/09/29 06:31:48;;;;;;;55.33;40.05;;;;;;;2.57;100.00;100013.63;5136096;27;20053;-48
2022/09/29 06:34:13;;;;;;;59.72;45.03;;;;;;;2.67;100.00;100016.63;5136174;27;20015;-50
2022/09/29 06:39:28;;;;;;;81.25;57.60;;;;;;;3.00;100.00;100019.03;5136456;27;20038;-49
2022/09/29 06:41:56;;;;;;;88.10;60.75;;;;;;;3.08;100.00;100020.25;5135906;27;20034;-50
2022/09/29 06:44:25;;;;;;;86.20;59.85;;;;;;;3.18;100.00;100024.97;5134913;27;20043;-46
2022/09/29 06:46:51;;;;;;;88.70;61.97;;;;;;;3.22;100.00;100026.84;5135710;27;20035;-50
2022/09/29 06:49:18;;;;;;;91.72;65.80;;;;;;;3.39;100.00;100032.69;5135876;27;20083;-49
2022/09/29 06:51:43;;;;;;;82.13;59.00;;;;;;;3.36;100.00;100034.25;5134748;27;20030;-48
2022/09/29 06:54:10;;;;;;;89.25;61.20;;;;;;;3.48;100.00;100039.03;5135886;27;20020;-51
2022/09/29 06:56:35;;;;;;;96.53;68.77;;;;;;;3.66;100.00;100038.97;5135316;27;20466;-50
2022/09/29 06:59:01;;;;;;;98.68;67.15;;;;;;;3.72;100.00;100040.13;5135002;27;20053;-49
2022/09/29 07:01:26;;;;;;;99.70;70.50;;;;;;;3.89;100.00;100038.31;5135579;27;20050;-48
2022/09/29 07:03:51;;;;;;;104.18;73.05;;;;;;;4.04;100.00;100034.66;5135333;27;20042;-50
2022/09/29 07:06:17;;;;;;;101.97;71.50;;;;;;;4.12;100.00;100046.94;5134693;27;20028;-45
2022/09/29 07:08:42;;;;;;;99.25;70.60;;;;;;;4.26;100.00;100041.53;5135163;27;20088;-49
2022/09/29 07:11:08;;;;;;;96.25;66.22;;;;;;;4.37;100.00;100042.00;5135460;27;20029;-46
2022/09/29 07:13:35;;;;;;;94.57;65.60;;;;;;;4.50;100.00;100054.44;5134443;27;20023;-47
2022/09/29 07:16:09;;;;;;;83.53;62.50;;;;;;;4.61;100.00;100048.09;5135763;27;20113;-49
2022/09/29 07:18:39;;;;;;;82.82;60.55;;;;;;;4.89;100.00;100048.34;5134320;27;20060;-47
2022/09/29 07:21:06;;;;;;;82.93;59.95;;;;;;;5.02;100.00;100057.34;5135142;27;20046;-48
2022/09/29 07:23:32;;;;;;;75.72;56.42;;;;;;;5.10;100.00;100056.00;5135153;27;20054;-47
2022/09/29 07:25:58;;;;;;;65.88;49.20;;;;;;;5.24;100.00;100062.50;5134441;27;20015;-49
2022/09/29 07:28:23;;;;;;;62.65;46.78;;;;;;;5.39;100.00;100059.63;5135287;27;20068;-48
2022/09/29 07:31:03;;;;;;;60.63;45.28;;;;;;;5.55;100.00;100068.78;5134703;27;20035;-49
2022/09/29 07:33:30;;;;;;;58.30;44.55;;;;;;;5.67;100.00;100070.00;5134098;27;20066;-50
2022/09/29 07:35:56;;;;;;;49.25;40.35;;;;;;;5.77;100.00;100059.31;5134964;27;20026;-49
2022/09/29 07:38:22;;;;;;;46.03;37.55;;;;;;;5.91;100.00;100067.47;5134755;27;20470;-49
2022/09/29 07:40:47;;;;;;;53.78;39.05;;;;;;;6.02;100.00;100062.81;5133865;27;20117;-51
2022/09/29 07:43:12;;;;;;;49.38;36.53;;;;;;;6.20;100.00;100066.00;5134626;27;20050;-50
2022/09/29 07:45:38;;;;;;;42.95;33.58;;;;;;;6.32;100.00;100064.69;5134485;27;20387;-49
2022/09/29 07:48:03;;;;;;;45.70;35.33;;;;;;;6.49;100.00;100070.38;5133821;27;20047;-49
2022/09/29 07:50:30;;;;;;;44.25;34.28;;;;;;;6.55;100.00;100062.91;5134765;27;20459;-46
2022/09/29 07:52:55;;;;;;;40.30;32.63;;;;;;;6.70;100.00;100072.75;5134516;27;20020;-49
2022/09/29 07:55:20;;;;;;;40.53;31.10;;;;;;;6.85;100.00;100078.38;5133966;27;20019;-49
2022/09/29 07:57:47;;;;;;;38.38;29.48;;;;;;;6.96;100.00;100072.72;5134287;27;20030;-46
2022/09/29 08:00:13;;;;;;;38.97;29.27;;;;;;;7.01;100.00;100078.84;5134524;27;20054;-47
2022/09/29 08:02:38;;;;;;;40.95;31.65;;;;;;;7.10;100.00;100084.25;5133288;27;20447;-47
2022/09/29 08:05:03;;;;;;;36.35;30.55;;;;;;;7.24;100.00;100079.56;5134631;27;20020;-46
2022/09/29 08:07:29;;;;;;;36.60;29.75;;;;;;;7.29;100.00;100093.41;5134700;27;20023;-48
2022/09/29 08:09:54;;;;;;;40.10;29.52;;;;;;;7.49;100.00;100088.91;5133401;27;20027;-48
2022/09/29 08:12:19;;;;;;;38.88;28.73;;;;;;;7.62;100.00;100089.25;5133985;27;20382;-48
2022/09/29 08:14:45;;;;;;;33.28;27.77;;;;;;;7.72;100.00;100096.38;5133892;27;20015;-45
2022/09/29 08:17:10;;;;;;;33.88;27.02;;;;;;;7.82;100.00;100098.38;5133546;27;20027;-50
2022/09/29 08:19:35;;;;;;;34.80;26.73;;;;;;;7.96;100.00;100095.34;5134174;27;20027;-49
2022/09/29 08:22:01;;;;;;;33.80;26.27;;;;;;;8.06;100.00;100098.22;5133565;27;20462;-50
2022/09/29 08:24:27;;;;;;;37.08;27.30;;;;;;;8.19;100.00;100099.41;5134359;27;20023;-49
2022/09/29 08:26:52;;;;;;;34.88;25.85;;;;;;;8.28;100.00;100103.06;5133839;27;20110;-51
2022/09/29 08:29:17;;;;;;;36.65;25.83;;;;;;;8.38;100.00;100105.91;5133302;27;20034;-45
2022/09/29 08:31:43;;;;;;;33.00;25.48;;;;;;;8.48;100.00;100111.31;5133786;27;20099;-50
2022/09/29 08:34:08;;;;;;;36.97;25.55;;;;;;;8.52;100.00;100111.47;5134181;27;20106;-50
2022/09/29 08:36:35;;;;;;;35.67;26.50;;;;;;;8.77;100.00;100111.22;5133013;27;20019;-49
2022/09/29 08:39:01;;;;;;;28.13;23.92;;;;;;;8.85;100.00;100125.97;5134027;27;20098;-47
2022/09/29 08:41:48;;;;;;;29.50;23.88;;;;;;;8.87;100.00;100119.19;5134061;27;20493;-51
2022/09/29 08:44:25;;;;;;;28.50;22.50;;;;;;;8.92;100.00;100128.69;5132849;28;20455;-50
2022/09/29 08:46:59;;;;;;;33.90;23.70;;;;;;;9.04;100.00;100126.44;5133726;28;20118;-49
2022/09/29 08:49:36;;;;;;;28.80;23.10;;;;;;;9.22;100.00;100126.88;5133718;28;20482;-50
2022/09/29 08:52:25;;;;;;;32.53;24.52;;;;;;;9.33;100.00;100126.25;5132958;28;20019;-48
2022/09/29 08:54:57;;;;;;;32.30;24.83;;;;;;;9.42;100.00;100136.75;5133584;28;20038;-50
2022/09/29 08:57:23;;;;;;;30.35;23.42;;;;;;;9.28;100.00;100138.13;5133139;28;20084;-49
2022/09/29 08:59:57;;;;;;;35.13;24.15;;;;;;;9.09;100.00;100132.56;5133465;28;20366;-52
2022/09/29 09:02:29;;;;;;;26.88;21.55;;;;;;;8.92;100.00;100142.41;5133909;28;20035;-50
2022/09/29 09:05:16;;;;;;;30.23;23.35;;;;;;;8.88;100.00;100141.47;5132561;28;20509;-50
2022/09/29 09:07:50;;;;;;;;;;;;;;;8.94;100.00;100143.31;5133756;28;20375;-49
2022/09/29 09:10:30;;;;;;;33.35;25.33;;;;;;;8.83;100.00;100145.63;5133564;28;20270;-50
2022/09/29 09:13:09;;;;;;;33.28;25.95;;;;;;;8.83;100.00;100145.63;5132916;28;20015;-48
2022/09/29 09:16:10;;;;;;;33.75;25.50;;;;;;;8.83;100.00;100145.63;5133276;28;20027;-45
2022/09/29 09:18:51;;;;;;;35.03;24.98;;;;;;;8.85;100.00;100149.09;5091051;28;20087;-51
2022/09/29 09:21:18;;;;;;;31.92;24.75;;;;;;;8.89;100.00;100145.78;5133544;28;20405;-50
2022/09/29 09:23:53;;;;;;;35.40;24.40;;;;;;;8.98;100.00;100146.84;5133586;27;20015;-47
2022/09/29 09:26:24;;;;;;;32.30;26.50;;;;;;;9.31;100.00;100151.03;5136604;27;20493;-47
2022/09/29 09:29:02;;;;;;;28.17;21.67;;;;;;;9.44;100.00;100154.78;5137402;27;20023;-50
2022/09/29 09:31:55;;;;;;;27.63;20.50;;;;;;;9.72;100.00;100157.16;5137522;27;20019;-45
2022/09/29 09:34:48;;;;;;;31.45;24.40;;;;;;;10.42;100.00;100150.88;5136544;27;20043;-50
2022/09/29 09:37:25;;;;;;;28.38;20.20;;;;;;;11.09;95.97;100152.00;5137423;27;20015;-50
2022/09/29 09:40:15;;;;;;;24.13;19.55;;;;;;;11.68;94.96;100144.31;5136260;27;20031;-48
2022/09/29 09:42:48;;;;;;;21.45;15.73;;;;;;;12.22;89.10;100149.31;5136699;27;20058;-46
2022/09/29 09:45:33;;;;;;;19.27;14.68;;;;;;;12.53;86.76;100147.06;5137445;27;20115;-47
2022/09/29 09:48:29;;;;;;;19.60;13.55;;;;;;;12.85;84.26;100142.19;5136311;27;20511;-47
2022/09/29 09:50:54;;;;;;;13.13;9.15;;;;;;;13.11;78.71;100151.03;5134812;27;20035;-48
2022/09/29 09:53:36;;;;;;;13.23;10.00;;;;;;;13.61;78.50;100160.06;5136433;27;20378;-48
2022/09/29 09:56:34;;;;;;;14.13;8.80;;;;;;;14.11;79.77;100156.84;5137171;27;20030;-49
2022/09/29 09:59:31;;;;;;;12.43;8.65;;;;;;;14.91;73.32;100155.31;5095931;27;20035;-47
2022/09/29 10:01:57;;;;;;;15.67;9.50;;;;;;;15.28;68.45;100156.19;5136195;27;20173;-46
2022/09/29 10:04:24;;;;;;;13.77;9.13;;;;;;;15.45;67.73;100156.19;5136595;27;20783;-48
2022/09/29 10:06:50;;;;;;;;;;;;;;;16.02;78.49;100160.38;5137022;27;20088;-48
2022/09/29 10:09:15;;;;;;;12.25;8.18;;;;;;;15.98;62.63;100163.84;5135877;27;20278;-48
2022/09/29 10:11:42;;;;;;;10.25;7.47;;;;;;;16.10;63.11;100163.81;5136339;27;20032;-46
2022/09/29 10:14:20;;;;;;;12.52;7.43;;;;;;;16.45;63.94;100167.97;5136779;27;20027;-48
2022/09/29 10:16:52;;;;;;;14.43;8.65;;;;;;;16.70;60.48;100165.22;5136322;27;20106;-48
2022/09/29 10:19:22;;;;;;;7.78;5.60;;;;;;;17.20;58.20;100164.91;5136564;27;20117;-48
2022/09/29 10:21:48;;;;;;;7.95;4.60;;;;;;;17.08;57.71;100166.72;5135310;27;20119;-46
2022/09/29 10:24:29;;;;;;;9.43;5.10;;;;;;;17.97;56.98;100168.47;5136331;27;20011;-46
2022/09/29 10:26:58;;;;;;;11.95;7.20;;;;;;;18.05;54.70;100172.72;5136196;27;20113;-48
2022/09/29 10:29:37;;;;;;;7.93;4.97;;;;;;;17.99;54.61;100170.19;5135537;27;20525;-49
2022/09/29 10:32:03;;;;;;;7.80;5.20;;;;;;;18.37;51.81;100178.41;5136224;27;20031;-49
2022/09/29 10:34:29;;;;;;;10.18;6.28;;;;;;;17.96;52.11;100178.06;5135940;27;20086;-49
2022/09/29 10:37:02;;;;;;;11.03;7.10;;;;;;;17.61;54.26;100184.44;5135134;27;20102;-48
2022/09/29 10:39:33;;;;;;;10.77;6.68;;;;;;;18.30;53.14;100180.22;5136282;27;20375;-48
2022/09/29 10:41:59;;;;;;;12.15;7.00;;;;;;;18.25;53.40;100171.59;5136439;27;20106;-46
2022/09/29 10:44:30;;;;;;;11.07;6.55;;;;;;;19.25;50.78;100190.19;5135266;27;20135;-48
2022/09/29 10:46:56;;;;;;;11.25;6.45;;;;;;;19.18;49.46;100188.56;5135988;27;20114;-46
2022/09/29 10:49:25;;;;;;;10.82;6.03;;;;;;;18.73;50.66;100190.09;5135706;27;20110;-48
2022/09/29 10:52:04;;;;;;;8.48;6.00;;;;;;;19.19;49.88;100187.69;5134959;27;20050;-47
2022/09/29 10:54:34;;;;;;;7.35;4.75;;;;;;;19.07;47.86;100186.13;5135882;27;20032;-49
2022/09/29 10:57:10;;;;;;;9.55;5.50;;;;;;;19.11;48.67;100186.91;5135013;27;20046;-49
2022/09/29 10:59:47;;;;;;;9.20;5.68;;;;;;;19.91;52.10;100185.53;5135396;27;20031;-47
2022/09/29 11:02:21;;;;;;;6.77;4.10;;;;;;;20.42;48.75;100188.88;5135796;27;20048;-49
2022/09/29 11:04:47;;;;;;;9.93;4.80;;;;;;;20.93;44.21;100180.75;5134755;27;20281;-47
2022/09/29 11:07:12;;;;;;;10.45;5.00;;;;;;;20.97;44.44;100185.00;5135546;27;20034;-48
2022/09/29 11:09:43;;;;;;;7.47;4.70;;;;;;;21.13;45.02;100182.00;5135147;27;20055;-47
2022/09/29 11:12:32;;;;;;;7.97;5.20;;;;;;;21.53;49.28;100189.69;5134683;27;20019;-49
2022/09/29 11:14:59;;;;;;;9.57;5.82;;;;;;;20.86;43.34;100176.53;5135511;27;20087;-48
2022/09/29 11:17:36;;;;;;;6.47;3.83;;;;;;;20.42;42.89;100186.25;5135404;27;20027;-49
2022/09/29 11:20:05;;;;;;;5.88;3.63;;;;;;;20.36;44.95;100193.34;5134642;27;20055;-47
2022/09/29 11:23:07;;;;;;;8.40;4.25;;;;;;;20.83;48.29;100190.56;5134883;27;20478;-47
2022/09/29 11:26:09;;;;;;;8.52;3.95;;;;;;;20.26;46.95;100194.41;5134399;27;20031;-49
2022/09/29 11:28:59;;;;;;;6.78;3.30;;;;;;;20.31;47.14;100184.72;5117453;27;20106;-49
2022/09/29 11:31:35;;;;;;;5.13;2.80;;;;;;;19.89;42.64;100188.16;5135030;27;20042;-48
2022/09/29 11:34:30;;;;;;;6.75;3.10;;;;;;;20.16;44.31;100190.28;5134242;27;20075;-48